Time,TemperatureF,DewpointF,PressureIn,WindDirection,WindDirectionDegrees,WindSpeedMPH,WindSpeedGustMPH,Humidity,HourlyPrecipIn,Conditions,Clouds,dailyrainin,SoftwareType,DateUTC
2013-09-15 00:02:00,49.0,47.0,30.13,NNW,344,0.0,0.0,91,0.00,,,0.00,weatherlink.com 1.10,2013-09-15 04:02:00,
2013-09-15 00:17:00,48.7,46.0,30.13,NNW,344,0.0,0.0,91,0.00,,,0.00,weatherlink.com 1.10,2013-09-15 04:17:00,
2013-09-15 00:32:00,48.2,46.0,30.13,NNW,344,0.0,0.0,91,0.00,,,0.00,weatherlink.com 1.10,2013-09-15 04:32:00,
2013-09-15 00:47:00,47.9,46.0,30.13,NNW,344,0.0,0.0,92,0.00,,,0.00,weatherlink.com 1.10,2013-09-15 04:47:00,
2013-09-15 01:02:00,47.7,46.0,30.14,NNW,343,1.0,2.0,93,0.00,,,0.00,weatherlink.com 1.10,2013-09-15 05:02:00,
2013-09-15 01:17:00,47.6,45.0,30.14,NNW,343,1.0,2.0,92,0.00,,,0.00,weatherlink.com 1.10,2013-09-15 05:17:00,
2013-09-15 01:32:00,48.2,46.0,30.14,NNW,343,0.0,3.0,92,0.00,,,0.00,weatherlink.com 1.10,2013-09-15 05:32:00,
2013-09-15 01:47:00,48.3,46.0,30.14,NNW,344,1.0,1.0,91,0.00,,,0.00,weatherlink.com 1.10,2013-09-15 05:47:00,
2013-09-15 02:02:00,48.3,46.0,30.14,NNW,344,1.0,2.0,90,0.00,,,0.00,weatherlink.com 1.10,2013-09-15 06:02:00,
2013-09-15 02:17:00,48.3,46.0,30.14,NNW,344,0.0,2.0,90,0.00,,,0.00,weatherlink.com 1.10,2013-09-15 06:17:00,
2013-09-15 02:32:00,48.2,46.0,30.15,NNW,344,2.0,2.0,90,0.00,,,0.00,weatherlink.com 1.10,2013-09-15 06:32:00,
2013-09-15 02:47:00,48.3,46.0,30.14,NNW,344,0.0,1.0,90,0.00,,,0.00,weatherlink.com 1.10,2013-09-15 06:47:00,
2013-09-15 03:02:00,48.0,45.0,30.15,NNW,344,0.0,2.0,90,0.00,,,0.00,weatherlink.com 1.10,2013-09-15 07:02:00,
2013-09-15 03:17:00,47.8,45.0,30.14,NNW,344,0.0,1.0,90,0.00,,,0.00,weatherlink.com 1.10,2013-09-15 07:17:00,
2013-09-15 03:32:00,47.5,45.0,30.15,NNW,344,0.0,1.0,91,0.00,,,0.00,weatherlink.com 1.10,2013-09-15 07:32:00,
2013-09-15 03:47:00,47.4,45.0,30.15,NNW,344,0.0,1.0,91,0.00,,,0.00,weatherlink.com 1.10,2013-09-15 07:47:00,
2013-09-15 04:02:00,47.4,45.0,30.15,NNW,343,0.0,2.0,91,0.00,,,0.00,weatherlink.com 1.10,2013-09-15 08:02:00,
2013-09-15 04:17:00,47.4,45.0,30.15,NNW,344,0.0,0.0,91,0.00,,,0.00,weatherlink.com 1.10,2013-09-15 08:17:00,
2013-09-15 04:32:00,46.9,45.0,30.16,NNW,344,0.0,0.0,91,0.00,,,0.00,weatherlink.com 1.10,2013-09-15 08:32:00,
2013-09-15 04:47:00,46.4,44.0,30.16,NNW,344,0.0,0.0,92,0.00,,,0.00,weatherlink.com 1.10,2013-09-15 08:47:00,
2013-09-15 05:02:00,46.0,44.0,30.16,NNW,344,0.0,0.0,93,0.00,,,0.00,weatherlink.com 1.10,2013-09-15 09:02:00,
2013-09-15 05:17:00,45.7,44.0,30.16,NNW,344,0.0,0.0,93,0.00,,,0.00,weatherlink.com 1.10,2013-09-15 09:17:00,
2013-09-15 05:32:00,45.4,44.0,30.17,NNW,344,0.0,0.0,93,0.00,,,0.00,weatherlink.com 1.10,2013-09-15 09:32:00,
2013-09-15 05:47:00,45.1,44.0,30.18,NNW,344,0.0,0.0,94,0.00,,,0.00,weatherlink.com 1.10,2013-09-15 09:47:00,
2013-09-15 06:02:00,45.0,43.0,30.17,NNW,344,0.0,1.0,94,0.00,,,0.00,weatherlink.com 1.10,2013-09-15 10:02:00,
2013-09-15 06:17:00,45.0,43.0,30.18,NNW,344,0.0,0.0,94,0.00,,,0.00,weatherlink.com 1.10,2013-09-15 10:17:00,
2013-09-15 06:32:00,45.2,44.0,30.18,NNW,344,0.0,1.0,95,0.00,,,0.00,weatherlink.com 1.10,2013-09-15 10:32:00,
2013-09-15 06:47:00,45.5,44.0,30.19,NNW,344,0.0,2.0,95,0.00,,,0.00,weatherlink.com 1.10,2013-09-15 10:47:00,
2013-09-15 07:02:00,45.0,43.0,30.19,NNW,343,0.0,1.0,94,0.00,,,0.00,weatherlink.com 1.10,2013-09-15 11:02:00,
2013-09-15 07:17:00,44.7,43.0,30.19,NNW,344,0.0,0.0,94,0.00,,,0.00,weatherlink.com 1.10,2013-09-15 11:17:00,
2013-09-15 07:32:00,44.9,44.0,30.19,NNW,344,0.0,0.0,95,0.00,,,0.00,weatherlink.com 1.10,2013-09-15 11:32:00,
2013-09-15 07:47:00,45.4,44.0,30.20,NNW,344,0.0,0.0,95,0.00,,,0.00,weatherlink.com 1.10,2013-09-15 11:47:00,
2013-09-15 08:02:00,46.1,45.0,30.20,NNW,344,0.0,0.0,95,0.00,,,0.00,weatherlink.com 1.10,2013-09-15 12:02:00,
2013-09-15 08:17:00,47.1,46.0,30.19,NNW,344,0.0,1.0,96,0.00,,,0.00,weatherlink.com 1.10,2013-09-15 12:17:00,
2013-09-15 08:32:00,48.2,47.0,30.20,NNW,344,0.0,0.0,95,0.00,,,0.00,weatherlink.com 1.10,2013-09-15 12:32:00,
2013-09-15 08:48:00,49.0,47.0,30.20,NNW,344,0.0,0.0,94,0.00,,,0.00,weatherlink.com 1.10,2013-09-15 12:48:00,
2013-09-15 09:03:00,49.9,48.0,30.21,NNW,344,0.0,0.0,94,0.00,,,0.00,weatherlink.com 1.10,2013-09-15 13:03:00,
2013-09-15 09:18:00,51.3,49.0,30.21,NNW,344,0.0,1.0,92,0.00,,,0.00,weatherlink.com 1.10,2013-09-15 13:18:00,
2013-09-15 09:33:00,52.4,50.0,30.21,NNW,344,0.0,0.0,91,0.00,,,0.00,weatherlink.com 1.10,2013-09-15 13:33:00,
2013-09-15 09:48:00,53.7,50.0,30.21,NNW,344,0.0,2.0,88,0.00,,,0.00,weatherlink.com 1.10,2013-09-15 13:48:00,
2013-09-15 10:03:00,54.8,50.0,30.21,ESE,121,0.0,2.0,85,0.00,,,0.00,weatherlink.com 1.10,2013-09-15 14:03:00,
2013-09-15 10:18:00,55.9,50.0,30.22,ESE,123,1.0,2.0,80,0.00,,,0.00,weatherlink.com 1.10,2013-09-15 14:18:00,
2013-09-15 10:33:00,57.1,50.0,30.22,West,271,4.0,5.0,78,0.00,,,0.00,weatherlink.com 1.10,2013-09-15 14:33:00,
2013-09-15 10:48:00,58.4,50.0,30.22,NW,320,0.0,2.0,73,0.00,,,0.00,weatherlink.com 1.10,2013-09-15 14:48:00,
2013-09-15 11:03:00,60.2,47.0,30.21,SW,217,1.0,3.0,63,0.00,,,0.00,weatherlink.com 1.10,2013-09-15 15:03:00,
2013-09-15 11:18:00,61.3,48.0,30.21,SW,223,0.0,5.0,62,0.00,,,0.00,weatherlink.com 1.10,2013-09-15 15:18:00,
2013-09-15 11:33:00,62.2,47.0,30.20,SW,236,2.0,3.0,59,0.00,,,0.00,weatherlink.com 1.10,2013-09-15 15:33:00,
2013-09-15 11:48:00,62.8,46.0,30.20,WSW,243,1.0,5.0,55,0.00,,,0.00,weatherlink.com 1.10,2013-09-15 15:48:00,
2013-09-15 12:03:00,63.3,48.0,30.20,SW,236,0.0,5.0,58,0.00,,,0.00,weatherlink.com 1.10,2013-09-15 16:03:00,
2013-09-15 12:18:00,63.6,46.0,30.20,SW,221,3.0,7.0,53,0.00,,,0.00,weatherlink.com 1.10,2013-09-15 16:18:00,
2013-09-15 12:33:00,63.8,45.0,30.19,WSW,247,2.0,5.0,50,0.00,,,0.00,weatherlink.com 1.10,2013-09-15 16:33:00,
2013-09-15 12:48:00,64.3,47.0,30.19,WSW,241,2.0,5.0,53,0.00,,,0.00,weatherlink.com 1.10,2013-09-15 16:48:00,
2013-09-15 13:03:00,65.0,46.0,30.18,WNW,287,2.0,4.0,51,0.00,,,0.00,weatherlink.com 1.10,2013-09-15 17:03:00,
2013-09-15 13:18:00,64.5,43.0,30.17,WSW,254,5.0,8.0,46,0.00,,,0.00,weatherlink.com 1.10,2013-09-15 17:18:00,
2013-09-15 13:33:00,65.2,45.0,30.17,SSW,206,2.0,5.0,49,0.00,,,0.00,weatherlink.com 1.10,2013-09-15 17:33:00,
2013-09-15 13:49:00,65.6,45.0,30.16,NW,325,2.0,3.0,47,0.00,,,0.00,weatherlink.com 1.10,2013-09-15 17:49:00,
2013-09-15 14:04:00,66.4,47.0,30.16,NW,307,0.0,3.0,50,0.00,,,0.00,weatherlink.com 1.10,2013-09-15 18:04:00,
2013-09-15 14:19:00,66.8,44.0,30.16,WSW,239,0.0,7.0,44,0.00,,,0.00,weatherlink.com 1.10,2013-09-15 18:19:00,
2013-09-15 14:34:00,67.1,47.0,30.15,WSW,245,1.0,3.0,49,0.00,,,0.00,weatherlink.com 1.10,2013-09-15 18:34:00,
2013-09-15 14:49:00,66.5,47.0,30.15,West,268,0.0,4.0,49,0.00,,,0.00,weatherlink.com 1.10,2013-09-15 18:49:00,
2013-09-15 15:04:00,66.7,48.0,30.14,North,351,3.0,3.0,51,0.00,,,0.00,weatherlink.com 1.10,2013-09-15 19:04:00,
2013-09-15 15:19:00,67.5,46.0,30.14,SW,227,0.0,8.0,47,0.00,,,0.00,weatherlink.com 1.10,2013-09-15 19:19:00,
2013-09-15 15:34:00,67.6,47.0,30.13,SW,230,1.0,5.0,47,0.00,,,0.00,weatherlink.com 1.10,2013-09-15 19:34:00,
2013-09-15 15:49:00,67.2,47.0,30.13,WSW,238,0.0,1.0,49,0.00,,,0.00,weatherlink.com 1.10,2013-09-15 19:49:00,
2013-09-15 16:04:00,68.4,46.0,30.12,South,186,4.0,4.0,45,0.00,,,0.00,weatherlink.com 1.10,2013-09-15 20:04:00,
2013-09-15 16:19:00,68.8,48.0,30.12,West,261,1.0,6.0,47,0.00,,,0.00,weatherlink.com 1.10,2013-09-15 20:19:00,
2013-09-15 16:34:00,68.3,52.0,30.11,SW,234,1.0,3.0,56,0.00,,,0.00,weatherlink.com 1.10,2013-09-15 20:34:00,
2013-09-15 16:49:00,67.4,52.0,30.11,West,280,1.0,3.0,59,0.00,,,0.00,weatherlink.com 1.10,2013-09-15 20:49:00,
2013-09-15 17:04:00,67.0,53.0,30.11,WNW,302,1.0,2.0,62,0.00,,,0.00,weatherlink.com 1.10,2013-09-15 21:04:00,
2013-09-15 17:19:00,66.1,54.0,30.11,West,267,0.0,3.0,66,0.00,,,0.00,weatherlink.com 1.10,2013-09-15 21:19:00,
2013-09-15 17:34:00,65.5,52.0,30.11,West,267,0.0,2.0,63,0.00,,,0.00,weatherlink.com 1.10,2013-09-15 21:34:00,
2013-09-15 17:49:00,65.4,55.0,30.11,West,267,0.0,1.0,69,0.00,,,0.00,weatherlink.com 1.10,2013-09-15 21:49:00,
2013-09-15 18:04:00,64.8,54.0,30.10,West,267,0.0,1.0,69,0.00,,,0.00,weatherlink.com 1.10,2013-09-15 22:04:00,
2013-09-15 18:19:00,63.5,55.0,30.10,West,267,0.0,1.0,73,0.00,,,0.00,weatherlink.com 1.10,2013-09-15 22:19:00,
2013-09-15 18:34:00,62.0,55.0,30.10,West,267,0.0,1.0,77,0.00,,,0.00,weatherlink.com 1.10,2013-09-15 22:34:00,
2013-09-15 18:49:00,60.6,54.0,30.10,West,267,0.0,1.0,78,0.00,,,0.00,weatherlink.com 1.10,2013-09-15 22:49:00,
2013-09-15 19:04:00,59.5,54.0,30.10,West,267,0.0,0.0,81,0.00,,,0.00,weatherlink.com 1.10,2013-09-15 23:04:00,
2013-09-15 19:19:00,58.5,53.0,30.10,West,267,0.0,0.0,83,0.00,,,0.00,weatherlink.com 1.10,2013-09-15 23:19:00,
2013-09-15 19:34:00,57.7,53.0,30.11,West,267,0.0,1.0,85,0.00,,,0.00,weatherlink.com 1.10,2013-09-15 23:34:00,
2013-09-15 19:49:00,57.1,53.0,30.11,West,267,0.0,0.0,85,0.00,,,0.00,weatherlink.com 1.10,2013-09-15 23:49:00,
2013-09-15 20:04:00,56.7,53.0,30.11,West,267,0.0,1.0,86,0.00,,,0.00,weatherlink.com 1.10,2013-09-16 00:04:00,
2013-09-15 20:19:00,56.3,53.0,30.10,West,267,0.0,0.0,87,0.00,,,0.00,weatherlink.com 1.10,2013-09-16 00:19:00,
2013-09-15 20:34:00,55.7,52.0,30.11,West,267,0.0,0.0,87,0.00,,,0.00,weatherlink.com 1.10,2013-09-16 00:34:00,
2013-09-15 20:49:00,55.1,52.0,30.11,West,267,0.0,0.0,88,0.00,,,0.00,weatherlink.com 1.10,2013-09-16 00:49:00,
2013-09-15 21:04:00,54.5,51.0,30.11,West,267,0.0,0.0,88,0.00,,,0.00,weatherlink.com 1.10,2013-09-16 01:04:00,
2013-09-15 21:19:00,54.1,51.0,30.12,West,267,0.0,0.0,89,0.00,,,0.00,weatherlink.com 1.10,2013-09-16 01:19:00,
2013-09-15 21:34:00,53.7,51.0,30.11,West,267,0.0,0.0,89,0.00,,,0.00,weatherlink.com 1.10,2013-09-16 01:34:00,
2013-09-15 21:49:00,53.6,51.0,30.11,West,267,0.0,0.0,90,0.00,,,0.00,weatherlink.com 1.10,2013-09-16 01:49:00,
2013-09-15 22:04:00,53.5,51.0,30.12,West,267,0.0,0.0,90,0.00,,,0.00,weatherlink.com 1.10,2013-09-16 02:04:00,
2013-09-15 22:19:00,53.5,51.0,30.11,West,267,0.0,1.0,91,0.00,,,0.00,weatherlink.com 1.10,2013-09-16 02:19:00,
2013-09-15 22:34:00,53.4,51.0,30.11,West,267,0.0,0.0,91,0.00,,,0.00,weatherlink.com 1.10,2013-09-16 02:34:00,
2013-09-15 22:49:00,53.3,51.0,30.11,West,267,0.0,0.0,91,0.00,,,0.00,weatherlink.com 1.10,2013-09-16 02:49:00,
2013-09-15 23:04:00,53.2,51.0,30.11,West,267,0.0,0.0,92,0.00,,,0.00,weatherlink.com 1.10,2013-09-16 03:04:00,
2013-09-15 23:19:00,53.2,51.0,30.11,West,267,0.0,0.0,93,0.00,,,0.00,weatherlink.com 1.10,2013-09-16 03:19:00,
2013-09-15 23:34:00,53.2,51.0,30.11,West,267,0.0,0.0,93,0.00,,,0.00,weatherlink.com 1.10,2013-09-16 03:34:00,
2013-09-15 23:49:00,53.3,51.0,30.11,West,267,0.0,0.0,93,0.00,,,0.00,weatherlink.com 1.10,2013-09-16 03:49:00,